createdAt,value
2018-10-09T00:02:13.635Z,10.60
2018-10-09T00:04:42.848Z,8.03
2018-10-09T00:07:11.981Z,10.70
2018-10-09T00:09:41.268Z,7.97
2018-10-09T00:12:10.978Z,9.50
2018-10-09T00:14:40.188Z,9.13
2018-10-09T00:17:09.456Z,9.23
2018-10-09T00:19:38.602Z,9.35
2018-10-09T00:22:07.813Z,14.50
2018-10-09T00:24:37.116Z,9.85
2018-10-09T00:27:06.279Z,10.13
2018-10-09T00:29:35.877Z,10.32
2018-10-09T00:32:05.012Z,10.43
2018-10-09T00:34:34.168Z,11.47
2018-10-09T00:37:03.427Z,13.50
2018-10-09T00:39:33.004Z,13.07
2018-10-09T00:42:02.188Z,13.03
2018-10-09T00:44:31.439Z,13.10
2018-10-09T00:47:00.748Z,12.80
2018-10-09T00:49:30.068Z,12.97
2018-10-09T00:51:59.363Z,14.33
2018-10-09T00:54:28.576Z,11.33
2018-10-09T00:56:57.776Z,12.63
2018-10-09T00:59:26.976Z,11.30
2018-10-09T01:01:56.220Z,12.27
2018-10-09T01:04:25.409Z,9.97
2018-10-09T01:06:54.612Z,10.17
2018-10-09T01:09:23.799Z,11.07
2018-10-09T01:11:52.961Z,11.77
2018-10-09T01:14:22.125Z,10.90
2018-10-09T01:16:51.323Z,11.40
2018-10-09T01:19:20.504Z,10.40
2018-10-09T01:21:49.670Z,11.23
2018-10-09T01:24:18.928Z,12.57
2018-10-09T01:26:48.065Z,10.90
2018-10-09T01:29:17.330Z,13.13
2018-10-09T01:31:46.527Z,12.50
2018-10-09T01:34:15.746Z,11.33
2018-10-09T01:36:45.012Z,12.13
2018-10-09T01:39:14.164Z,11.63
2018-10-09T01:41:43.343Z,12.90
2018-10-09T01:44:12.547Z,14.07
2018-10-09T01:46:41.824Z,16.32
2018-10-09T01:49:10.955Z,18.37
2018-10-09T01:51:40.150Z,13.50
2018-10-09T01:54:09.304Z,14.33
2018-10-09T01:56:38.606Z,13.73
2018-10-09T01:59:07.851Z,14.83
2018-10-09T02:01:37.083Z,16.07
2018-10-09T02:04:06.240Z,12.77
2018-10-09T02:06:46.733Z,12.80
2018-10-09T02:09:15.922Z,15.93
2018-10-09T02:11:45.128Z,11.70
2018-10-09T02:14:14.414Z,14.23
2018-10-09T02:16:43.739Z,12.47
2018-10-09T02:19:12.936Z,11.80
2018-10-09T02:21:42.259Z,12.53
2018-10-09T02:24:11.488Z,10.43
2018-10-09T02:26:40.697Z,14.47
2018-10-09T02:29:09.994Z,13.18
2018-10-09T02:31:39.199Z,11.63
2018-10-09T02:34:08.453Z,10.97
2018-10-09T02:36:37.623Z,13.57
2018-10-09T02:39:09.136Z,13.90
2018-10-09T02:41:38.473Z,12.45
2018-10-09T02:44:08.092Z,11.30
2018-10-09T02:46:37.300Z,12.37
2018-10-09T02:49:06.785Z,11.97
2018-10-09T02:51:36.337Z,13.65
2018-10-09T02:54:05.791Z,13.10
2018-10-09T02:56:35.010Z,11.93
2018-10-09T02:59:04.317Z,12.80
2018-10-09T03:06:34.604Z,13.97
2018-10-09T03:09:04.803Z,15.15
2018-10-09T03:11:34.098Z,15.60
2018-10-09T03:14:03.347Z,17.60
2018-10-09T03:16:32.564Z,15.13
2018-10-09T03:19:04.789Z,14.13
2018-10-09T03:21:34.024Z,17.75
2018-10-09T03:24:03.225Z,20.07
2018-10-09T03:26:32.412Z,16.73
2018-10-09T03:29:01.610Z,15.77
2018-10-09T03:31:30.876Z,14.17
2018-10-09T03:34:00.155Z,12.97
2018-10-09T03:36:29.413Z,14.27
2018-10-09T03:38:58.615Z,21.37
2018-10-09T03:41:27.834Z,15.23
2018-10-09T03:43:57.129Z,14.40
2018-10-09T03:46:26.369Z,14.53
2018-10-09T03:48:56.640Z,17.73
2018-10-09T03:51:25.806Z,16.23
2018-10-09T03:53:54.941Z,13.60
2018-10-09T03:56:24.145Z,14.00
2018-10-09T03:58:53.451Z,17.20
2018-10-09T04:01:22.615Z,16.73
2018-10-09T04:03:51.795Z,14.20
2018-10-09T04:06:21.044Z,14.90
2018-10-09T04:08:50.370Z,16.50
2018-10-09T04:11:19.838Z,16.27
2018-10-09T04:13:49.181Z,20.50
2018-10-09T04:16:18.328Z,17.97
2018-10-09T04:18:48.132Z,18.48
2018-10-09T04:21:17.369Z,19.03
2018-10-09T04:23:46.500Z,17.20
2018-10-09T04:26:15.682Z,18.12
2018-10-09T04:28:44.930Z,16.60
2018-10-09T04:31:14.123Z,15.60
2018-10-09T04:33:43.292Z,19.03
2018-10-09T04:36:12.475Z,15.00
2018-10-09T04:38:41.768Z,18.12
2018-10-09T04:41:10.957Z,17.57
2018-10-09T04:43:40.230Z,19.67
2018-10-09T04:46:09.489Z,16.77
2018-10-09T04:48:38.674Z,17.67
2018-10-09T04:51:07.948Z,16.60
2018-10-09T04:53:37.145Z,14.87
2018-10-09T04:56:06.427Z,26.73
2018-10-09T04:58:35.612Z,16.25
2018-10-09T05:01:04.866Z,21.57
2018-10-09T05:03:34.098Z,16.97
2018-10-09T05:06:03.280Z,18.60
2018-10-09T05:08:32.546Z,15.23
2018-10-09T05:11:01.803Z,18.10
2018-10-09T05:13:30.991Z,23.10
2018-10-09T05:16:00.176Z,20.07
2018-10-09T05:18:29.395Z,19.50
2018-10-09T05:20:58.584Z,18.63
2018-10-09T05:23:27.835Z,18.33
2018-10-09T05:25:57.084Z,16.12
2018-10-09T05:28:26.244Z,16.37
2018-10-09T05:30:55.444Z,18.40
2018-10-09T05:33:24.655Z,17.17
2018-10-09T05:35:53.856Z,18.03
2018-10-09T05:38:23.103Z,17.97
2018-10-09T05:40:52.345Z,17.90
2018-10-09T05:43:21.505Z,15.13
2018-10-09T05:45:50.677Z,16.15
2018-10-09T05:48:19.892Z,18.83
2018-10-09T05:50:49.071Z,19.20
2018-10-09T05:53:18.185Z,17.33
2018-10-09T05:55:47.398Z,18.33
2018-10-09T05:58:16.630Z,18.97
2018-10-09T06:00:45.781Z,17.83
2018-10-09T06:03:14.940Z,18.67
2018-10-09T06:05:44.175Z,17.00
2018-10-09T06:08:13.308Z,21.23
2018-10-09T06:10:42.536Z,18.50
2018-10-09T06:13:11.787Z,18.57
2018-10-09T06:15:41.141Z,20.77
2018-10-09T06:18:10.248Z,19.57
2018-10-09T06:20:39.453Z,20.27
2018-10-09T06:23:08.664Z,20.40
2018-10-09T06:25:38.104Z,18.77
2018-10-09T06:28:07.795Z,17.30
2018-10-09T06:30:37.075Z,18.90
2018-10-09T06:33:06.356Z,17.90
2018-10-09T06:35:35.516Z,18.67
2018-10-09T06:38:04.723Z,22.80
2018-10-09T06:40:33.953Z,21.48
2018-10-09T06:43:03.146Z,17.98
2018-10-09T06:45:32.347Z,20.50
2018-10-09T06:48:01.564Z,24.90
2018-10-09T06:50:30.706Z,19.57
2018-10-09T06:52:59.971Z,22.48
2018-10-09T06:55:29.139Z,22.13
2018-10-09T06:57:58.312Z,23.50
2018-10-09T07:00:27.493Z,23.17
2018-10-09T07:02:56.750Z,29.33
2018-10-09T07:05:25.917Z,24.40
2018-10-09T07:07:55.151Z,32.63
2018-10-09T07:10:24.366Z,32.33
2018-10-09T07:12:53.568Z,35.10
2018-10-09T07:15:22.804Z,32.20
2018-10-09T07:17:51.923Z,28.98
2018-10-09T07:20:21.155Z,30.60
2018-10-09T07:22:50.503Z,28.47
2018-10-09T07:25:19.757Z,28.93
2018-10-09T07:27:48.974Z,29.77
2018-10-09T07:30:18.167Z,30.82
2018-10-09T07:32:47.384Z,29.37
2018-10-09T07:35:16.545Z,29.10
2018-10-09T07:37:45.761Z,28.97
2018-10-09T07:40:14.934Z,30.10
2018-10-09T07:42:44.274Z,30.00
2018-10-09T07:45:13.520Z,37.08
2018-10-09T07:47:42.732Z,36.77
2018-10-09T07:50:12.233Z,33.73
2018-10-09T07:52:41.447Z,40.07
2018-10-09T07:55:10.823Z,39.90
2018-10-09T07:57:40.083Z,43.30
2018-10-09T08:00:09.289Z,47.67
2018-10-09T08:02:38.421Z,42.17
2018-10-09T08:05:07.655Z,43.83
2018-10-09T08:07:37.103Z,40.67
2018-10-09T08:10:06.674Z,40.77
2018-10-09T08:12:35.835Z,38.77
2018-10-09T08:15:05.080Z,33.87
2018-10-09T08:17:34.298Z,39.30
2018-10-09T08:20:03.565Z,32.83
2018-10-09T08:22:32.771Z,36.63
2018-10-09T08:25:01.945Z,35.83
2018-10-09T08:27:31.100Z,38.43
2018-10-09T08:30:00.285Z,36.33
2018-10-09T08:32:29.472Z,34.17
2018-10-09T08:34:58.712Z,36.23
2018-10-09T08:37:27.872Z,30.97
2018-10-09T08:39:57.033Z,36.53
2018-10-09T08:42:26.226Z,30.77
2018-10-09T08:44:55.399Z,33.90
2018-10-09T08:47:24.592Z,36.45
2018-10-09T08:49:53.797Z,30.97
2018-10-09T08:52:23.003Z,28.70
2018-10-09T08:54:52.200Z,30.53
2018-10-09T08:57:21.397Z,32.80
2018-10-09T08:59:50.588Z,34.55
2018-10-09T09:02:19.840Z,31.27
2018-10-09T09:04:48.993Z,27.07
2018-10-09T09:07:18.204Z,28.37
2018-10-09T09:09:47.448Z,30.77
2018-10-09T09:12:16.593Z,26.97
2018-10-09T09:14:45.829Z,30.47
2018-10-09T09:17:14.988Z,27.97
2018-10-09T09:19:44.218Z,30.17
2018-10-09T09:22:13.400Z,31.37
2018-10-09T09:24:42.739Z,29.33
2018-10-09T09:27:12.058Z,35.23
2018-10-09T09:29:41.147Z,39.60
2018-10-09T09:32:10.359Z,35.48
2018-10-09T09:34:39.623Z,36.30
2018-10-09T09:37:08.875Z,34.77
2018-10-09T09:39:38.073Z,34.15
2018-10-09T09:42:07.271Z,38.17
2018-10-09T09:44:36.568Z,38.33
2018-10-09T09:47:05.809Z,34.57
2018-10-09T09:49:35.033Z,36.88
2018-10-09T09:52:04.226Z,36.00
2018-10-09T09:54:33.428Z,32.40
2018-10-09T09:57:02.632Z,30.00
2018-10-09T09:59:31.793Z,30.93
2018-10-09T10:02:01.021Z,33.93
2018-10-09T10:04:30.264Z,31.23
2018-10-09T10:06:59.452Z,29.47
2018-10-09T10:09:28.695Z,28.67
2018-10-09T10:11:57.847Z,26.47
2018-10-09T10:14:27.045Z,28.43
2018-10-09T10:16:56.249Z,23.20
2018-10-09T10:19:25.426Z,25.60
2018-10-09T10:21:55.001Z,21.35
2018-10-09T10:24:24.246Z,22.07
2018-10-09T10:26:53.463Z,25.33
2018-10-09T10:29:22.729Z,20.03
2018-10-09T10:31:52.085Z,28.17
2018-10-09T10:34:21.300Z,29.13
2018-10-09T10:36:50.643Z,25.70
2018-10-09T10:39:19.678Z,26.97
2018-10-09T10:41:48.874Z,28.90
2018-10-09T10:44:18.086Z,27.73
2018-10-09T10:46:47.277Z,28.63
2018-10-09T10:49:16.480Z,25.13
2018-10-09T10:51:45.603Z,25.33
2018-10-09T10:54:14.747Z,25.07
2018-10-09T10:56:43.961Z,28.80
2018-10-09T10:59:13.185Z,32.50
2018-10-09T11:01:42.509Z,29.20
2018-10-09T11:04:11.652Z,27.40
2018-10-09T11:06:40.804Z,28.00
2018-10-09T11:09:10.927Z,28.80
2018-10-09T11:11:40.098Z,28.20
2018-10-09T11:14:09.318Z,23.33
2018-10-09T11:16:38.491Z,31.57
2018-10-09T11:19:07.721Z,26.60
2018-10-09T11:21:36.918Z,23.60
2018-10-09T11:24:06.122Z,24.93
2018-10-09T11:26:35.308Z,25.10
2018-10-09T11:29:04.564Z,21.70
2018-10-09T11:31:33.818Z,33.97
2018-10-09T11:34:02.996Z,25.30
2018-10-09T11:36:32.154Z,22.47
2018-10-09T11:39:01.364Z,19.53
2018-10-09T11:41:33.622Z,21.27
2018-10-09T11:44:03.701Z,23.00
2018-10-09T11:46:33.966Z,20.10
2018-10-09T11:49:03.208Z,21.40
2018-10-09T11:51:32.375Z,21.07
2018-10-09T11:54:01.516Z,15.47
2018-10-09T11:56:30.681Z,19.10
2018-10-09T11:58:59.913Z,16.95
2018-10-09T12:01:29.085Z,17.20
2018-10-09T12:03:58.281Z,20.68
2018-10-09T12:06:28.488Z,15.78
2018-10-09T12:08:57.649Z,14.20
2018-10-09T12:11:26.797Z,16.30
2018-10-09T12:13:56.093Z,16.00
2018-10-09T12:16:25.348Z,14.95
2018-10-09T12:18:54.513Z,19.10
2018-10-09T12:21:23.724Z,11.03
2018-10-09T12:23:52.845Z,14.53
2018-10-09T12:26:22.041Z,17.50
2018-10-09T12:28:51.226Z,16.83
2018-10-09T12:31:20.437Z,15.38
2018-10-09T12:33:49.577Z,14.87
2018-10-09T12:36:18.751Z,11.73
2018-10-09T12:38:47.884Z,14.30
2018-10-09T12:41:17.071Z,13.33
2018-10-09T12:43:46.277Z,16.17
2018-10-09T12:46:15.459Z,12.80
2018-10-09T12:48:44.677Z,16.97
2018-10-09T12:51:13.843Z,19.63
2018-10-09T12:53:42.965Z,15.13
2018-10-09T12:56:12.135Z,11.63
2018-10-09T12:58:41.385Z,17.37
2018-10-09T13:01:10.492Z,15.90
2018-10-09T13:03:39.678Z,13.30
2018-10-09T13:06:08.848Z,15.60
2018-10-09T13:08:38.219Z,19.07
2018-10-09T13:11:07.893Z,14.63
2018-10-09T13:13:37.083Z,18.00
2018-10-09T13:16:06.287Z,18.60
2018-10-09T13:18:35.511Z,20.02
2018-10-09T13:21:04.802Z,18.52
2018-10-09T13:23:33.929Z,15.47
2018-10-09T13:26:03.110Z,18.03
2018-10-09T13:28:32.291Z,15.07
2018-10-09T13:31:01.675Z,18.60
2018-10-09T13:33:30.897Z,20.93
2018-10-09T13:36:00.084Z,18.15
2018-10-09T13:38:29.274Z,18.63
2018-10-09T13:40:58.492Z,17.93
2018-10-09T13:43:27.762Z,19.97
2018-10-09T13:45:56.958Z,22.27
2018-10-09T13:48:26.199Z,26.52
2018-10-09T13:50:55.465Z,20.75
2018-10-09T13:53:24.634Z,20.47
2018-10-09T13:55:53.834Z,19.13
2018-10-09T13:58:23.121Z,21.40
2018-10-09T14:00:52.262Z,21.67
2018-10-09T14:03:21.527Z,19.37
2018-10-09T14:05:50.660Z,19.43
2018-10-09T14:08:20.221Z,21.57
2018-10-09T14:10:49.399Z,22.80
2018-10-09T14:13:18.600Z,24.13
2018-10-09T14:15:47.856Z,19.60
2018-10-09T14:18:17.065Z,20.93
2018-10-09T14:20:46.420Z,23.05
2018-10-09T14:23:16.760Z,18.57
2018-10-09T14:25:47.114Z,25.17
2018-10-09T14:28:20.364Z,22.80
2018-10-09T14:30:49.628Z,21.60
2018-10-09T14:33:24.206Z,22.93
2018-10-09T14:36:01.553Z,22.10
2018-10-09T14:38:31.360Z,22.80
2018-10-09T14:41:00.593Z,26.42
2018-10-09T14:43:29.788Z,19.63
2018-10-09T14:45:59.009Z,21.27
2018-10-09T14:48:29.420Z,24.17
2018-10-09T14:50:58.651Z,23.57
2018-10-09T14:58:26.256Z,23.00
2018-10-09T15:00:55.930Z,22.93
2018-10-09T15:03:25.583Z,22.50
2018-10-09T15:05:55.065Z,17.37
2018-10-09T15:08:25.315Z,18.27
2018-10-09T15:10:55.200Z,22.33
2018-10-09T15:13:24.495Z,17.43
2018-10-09T15:15:53.994Z,17.70
2018-10-09T15:18:23.547Z,22.27
2018-10-09T15:20:52.985Z,14.20
2018-10-09T15:23:23.571Z,15.60
2018-10-09T15:25:53.170Z,18.27
2018-10-09T15:28:22.860Z,17.30
2018-10-09T15:33:30.881Z,16.73
2018-10-09T15:36:00.086Z,15.83
2018-10-09T15:38:29.345Z,15.90
2018-10-09T15:40:58.831Z,15.20
2018-10-09T15:43:28.131Z,17.03
2018-10-09T15:45:57.421Z,16.33
2018-10-09T15:48:26.721Z,12.63
2018-10-09T15:50:56.161Z,15.87
2018-10-09T15:53:25.926Z,14.73
2018-10-09T15:55:55.223Z,11.20
2018-10-09T15:58:24.958Z,11.30
2018-10-09T16:00:54.333Z,13.37
2018-10-09T16:06:07.068Z,12.80
2018-10-09T16:08:36.245Z,10.25
2018-10-09T16:11:05.539Z,11.80
2018-10-09T16:13:34.769Z,10.97
2018-10-09T16:16:03.936Z,12.03
2018-10-09T16:18:33.202Z,14.85
2018-10-09T16:21:03.691Z,12.57
2018-10-09T16:23:34.777Z,10.77
2018-10-09T16:26:04.098Z,15.20
2018-10-09T16:28:33.601Z,19.30
2018-10-09T16:31:02.946Z,13.43
2018-10-09T16:33:32.146Z,11.40
2018-10-09T16:36:07.355Z,10.53
2018-10-09T16:38:36.588Z,15.55
2018-10-09T16:41:07.098Z,12.33
2018-10-09T16:43:36.395Z,11.53
2018-10-09T16:46:06.254Z,12.33
2018-10-09T16:48:35.581Z,12.03
2018-10-09T16:51:04.918Z,14.63
2018-10-09T16:53:34.272Z,17.50
2018-10-09T16:56:03.464Z,12.27
2018-10-09T16:58:32.712Z,14.25
2018-10-09T17:01:02.059Z,11.33
2018-10-09T17:03:31.391Z,11.73
2018-10-09T17:06:00.737Z,11.57
2018-10-09T17:08:29.989Z,12.80
2018-10-09T17:10:59.312Z,13.10
2018-10-09T17:13:28.590Z,16.27
2018-10-09T17:15:57.868Z,11.53
2018-10-09T17:18:28.162Z,9.87
2018-10-09T17:20:57.409Z,12.97
2018-10-09T17:23:26.628Z,10.60
2018-10-09T17:25:55.862Z,12.35
2018-10-09T17:28:25.110Z,12.07
2018-10-09T17:30:54.369Z,10.83
2018-10-09T17:33:23.738Z,17.23
2018-10-09T17:35:52.945Z,13.80
2018-10-09T17:38:22.194Z,20.47
2018-10-09T17:40:51.460Z,11.17
2018-10-09T17:43:20.661Z,13.53
2018-10-09T17:45:49.932Z,13.70
2018-10-09T17:48:19.216Z,15.63
2018-10-09T17:50:48.369Z,15.83
2018-10-09T17:53:17.639Z,12.80
2018-10-09T17:55:46.838Z,15.88
2018-10-09T17:58:15.996Z,17.33
2018-10-09T18:00:45.245Z,15.30
2018-10-09T18:03:14.599Z,19.70
2018-10-09T18:05:43.756Z,21.20
2018-10-09T18:08:13.132Z,13.33
2018-10-09T18:10:42.556Z,14.53
2018-10-09T18:13:12.716Z,17.17
2018-10-09T18:15:42.053Z,15.40
2018-10-09T18:18:11.228Z,15.07
2018-10-09T18:20:40.405Z,14.83
2018-10-09T18:23:09.653Z,16.47
2018-10-09T18:25:38.811Z,14.97
2018-10-09T18:28:08.272Z,13.47
2018-10-09T18:30:37.458Z,18.00
2018-10-09T18:33:06.987Z,17.07
2018-10-09T18:35:37.184Z,17.97
2018-10-09T18:38:06.543Z,16.03
2018-10-09T18:40:35.748Z,18.03
2018-10-09T18:43:04.970Z,21.35
2018-10-09T18:45:34.250Z,20.70
2018-10-09T18:48:03.448Z,20.47
2018-10-09T18:50:32.632Z,20.43
2018-10-09T18:53:01.789Z,16.47
2018-10-09T18:55:31.020Z,18.23
2018-10-09T18:58:00.298Z,19.32
2018-10-09T19:00:29.602Z,21.57
2018-10-09T19:02:58.835Z,19.50
2018-10-09T19:05:28.003Z,19.67
2018-10-09T19:07:57.131Z,21.03
2018-10-09T19:10:26.337Z,16.63
2018-10-09T19:12:55.812Z,20.50
2018-10-09T19:15:25.114Z,21.83
2018-10-09T19:17:54.331Z,22.63
2018-10-09T19:20:23.599Z,18.00
2018-10-09T19:22:52.760Z,20.20
2018-10-09T19:25:22.013Z,23.83
2018-10-09T19:27:51.219Z,21.53
2018-10-09T19:30:20.424Z,23.73
2018-10-09T19:32:49.597Z,21.10
2018-10-09T19:35:18.928Z,21.43
2018-10-09T19:37:48.092Z,20.17
2018-10-09T19:40:17.300Z,23.80
2018-10-09T19:42:46.641Z,22.80
2018-10-09T19:45:15.906Z,19.40
2018-10-09T19:47:45.129Z,17.07
2018-10-09T19:50:14.311Z,24.90
2018-10-09T19:52:43.515Z,21.55
2018-10-09T19:55:12.667Z,19.07
2018-10-09T19:57:41.988Z,18.12
2018-10-09T20:00:11.167Z,23.73
2018-10-09T20:02:42.390Z,20.52
2018-10-09T20:05:11.606Z,19.07
2018-10-09T20:07:40.915Z,18.27
2018-10-09T20:10:10.408Z,24.23
2018-10-09T20:12:39.575Z,24.00
2018-10-09T20:15:08.824Z,19.53
2018-10-09T20:17:38.134Z,21.70
2018-10-09T20:20:07.359Z,19.77
2018-10-09T20:22:36.680Z,19.00
2018-10-09T20:25:05.926Z,19.10
2018-10-09T20:27:35.899Z,19.80
2018-10-09T20:30:05.195Z,22.03
2018-10-09T20:32:34.540Z,21.90
2018-10-09T20:35:03.764Z,23.63
2018-10-09T20:37:32.958Z,20.77
2018-10-09T20:40:02.158Z,20.27
2018-10-09T20:42:31.384Z,20.77
2018-10-09T20:45:00.572Z,20.03
2018-10-09T20:47:35.056Z,17.73
2018-10-09T20:50:04.341Z,20.48
2018-10-09T20:52:33.489Z,19.27
2018-10-09T20:55:02.673Z,22.45
2018-10-09T20:57:31.905Z,15.97
2018-10-09T21:00:01.151Z,19.50
2018-10-09T21:02:30.330Z,19.63
2018-10-09T21:04:59.558Z,22.20
2018-10-09T21:07:28.776Z,22.30
2018-10-09T21:09:58.952Z,20.60
2018-10-09T21:12:28.140Z,23.33
2018-10-09T21:14:57.261Z,18.47
2018-10-09T21:17:26.521Z,19.53
2018-10-09T21:19:55.661Z,22.33
2018-10-09T21:22:24.903Z,20.25
2018-10-09T21:24:54.097Z,19.43
2018-10-09T21:27:23.204Z,22.73
2018-10-09T21:29:52.417Z,21.07
2018-10-09T21:32:21.567Z,19.70
2018-10-09T21:34:50.708Z,20.30
2018-10-09T21:37:19.832Z,23.50
2018-10-09T21:39:48.961Z,17.87
2018-10-09T21:42:18.074Z,19.82
2018-10-09T21:44:47.344Z,19.80
2018-10-09T21:47:17.645Z,19.00
2018-10-09T21:49:46.763Z,18.27
2018-10-09T21:52:15.940Z,22.93
2018-10-09T21:54:45.227Z,19.03
2018-10-09T21:57:14.476Z,15.80
2018-10-09T21:59:43.621Z,20.80
2018-10-09T22:02:12.796Z,18.83
2018-10-09T22:04:42.050Z,17.27
2018-10-09T22:07:19.281Z,18.03
2018-10-09T22:09:50.792Z,20.47
2018-10-09T22:12:20.125Z,19.80
2018-10-09T22:14:49.304Z,21.40
2018-10-09T22:17:18.536Z,19.93
2018-10-09T22:19:47.685Z,21.80
2018-10-09T22:22:16.891Z,20.52
2018-10-09T22:24:46.124Z,18.35
2018-10-09T22:27:15.290Z,21.40
2018-10-09T22:29:44.511Z,20.47
2018-10-09T22:32:13.740Z,21.87
2018-10-09T22:34:42.978Z,18.17
2018-10-09T22:37:12.319Z,19.62
2018-10-09T22:39:41.824Z,20.80
2018-10-09T22:42:11.111Z,18.85
2018-10-09T22:44:40.354Z,19.23
2018-10-09T22:47:09.633Z,19.70
2018-10-09T22:49:38.842Z,21.47
2018-10-09T22:52:08.191Z,18.27
2018-10-09T22:54:37.345Z,21.17
2018-10-09T22:57:06.606Z,19.77
2018-10-09T22:59:35.807Z,23.87
2018-10-09T23:02:05.096Z,18.07
2018-10-09T23:04:34.382Z,19.03
2018-10-09T23:07:03.534Z,17.83
2018-10-09T23:09:32.763Z,17.27
2018-10-09T23:12:01.904Z,19.30
2018-10-09T23:14:31.106Z,21.43
2018-10-09T23:17:00.383Z,18.03
2018-10-09T23:19:29.515Z,17.10
2018-10-09T23:21:58.835Z,15.00
2018-10-09T23:24:27.979Z,17.97
2018-10-09T23:26:57.198Z,20.15
2018-10-09T23:29:26.367Z,19.00
2018-10-09T23:31:55.520Z,16.40
2018-10-09T23:34:24.700Z,21.20
2018-10-09T23:36:53.831Z,17.70
2018-10-09T23:39:23.046Z,21.23
2018-10-09T23:41:52.290Z,19.27
2018-10-09T23:44:21.474Z,20.10
2018-10-09T23:46:51.433Z,20.23
2018-10-09T23:49:20.616Z,22.23
2018-10-09T23:51:49.908Z,19.03
2018-10-09T23:54:19.101Z,19.87
2018-10-09T23:56:48.472Z,16.17
2018-10-09T23:59:17.644Z,25.97
